createdAt,value
2023-05-10T00:01:03.704Z,82.28
2023-05-10T00:03:30.546Z,85.09
2023-05-10T00:05:57.583Z,84.34
2023-05-10T00:08:24.248Z,84.29
2023-05-10T00:10:51.149Z,86.73
2023-05-10T00:13:17.930Z,85.62
2023-05-10T00:15:44.736Z,85.98
2023-05-10T00:18:11.594Z,87.74
2023-05-10T00:20:38.282Z,88.23
2023-05-10T00:23:04.881Z,89.35
2023-05-10T00:25:31.416Z,89.56
2023-05-10T00:27:58.332Z,89.99
2023-05-10T00:30:25.324Z,91.00
2023-05-10T00:32:52.797Z,90.76
2023-05-10T00:35:19.617Z,93.11
2023-05-10T00:37:46.347Z,92.60
2023-05-10T00:40:13.451Z,92.59
2023-05-10T00:42:41.792Z,92.46
2023-05-10T00:45:09.110Z,92.15
2023-05-10T00:47:36.359Z,93.25
2023-05-10T00:50:03.819Z,95.74
2023-05-10T00:52:31.277Z,94.92
2023-05-10T00:54:59.423Z,94.39
2023-05-10T00:57:26.290Z,95.62
2023-05-10T00:59:53.206Z,94.64
2023-05-10T01:02:20.036Z,94.73
2023-05-10T01:04:47.328Z,96.26
2023-05-10T01:07:14.115Z,96.87
2023-05-10T01:09:41.089Z,95.94
2023-05-10T01:12:08.524Z,95.56
2023-05-10T01:14:37.322Z,96.09
2023-05-10T01:17:05.909Z,95.21
2023-05-10T01:19:36.062Z,97.41
2023-05-10T01:22:11.547Z,98.09
2023-05-10T01:25:10.992Z,98.37
2023-05-10T01:27:49.454Z,99.11
2023-05-10T01:30:31.275Z,97.39
2023-05-10T01:33:12.688Z,97.19
2023-05-10T01:36:08.705Z,97.71
2023-05-10T01:38:43.960Z,99.10
2023-05-10T01:41:21.135Z,98.83
2023-05-10T01:44:06.731Z,98.73
2023-05-10T01:46:38.558Z,99.68
2023-05-10T01:49:31.959Z,98.60
2023-05-10T01:52:10.230Z,98.27
2023-05-10T01:54:39.658Z,99.32
2023-05-10T01:57:09.902Z,98.44
2023-05-10T01:59:41.909Z,97.84
2023-05-10T02:02:12.903Z,98.22
2023-05-10T02:04:41.795Z,99.67
2023-05-10T02:07:10.599Z,98.59
2023-05-10T02:09:38.638Z,98.24
2023-05-10T02:12:06.607Z,98.70
2023-05-10T02:14:36.490Z,99.89
2023-05-10T02:17:06.056Z,100.00
2023-05-10T02:19:34.770Z,100.00
2023-05-10T02:22:02.604Z,99.46
2023-05-10T02:24:30.004Z,98.55
2023-05-10T02:26:57.776Z,100.00
2023-05-10T02:29:26.164Z,100.00
2023-05-10T02:31:56.059Z,100.00
2023-05-10T02:34:24.320Z,100.00
2023-05-10T02:36:53.251Z,100.00
2023-05-10T02:39:25.889Z,100.00
2023-05-10T02:41:54.475Z,100.00
2023-05-10T02:44:23.612Z,100.00
2023-05-10T02:46:50.542Z,100.00
2023-05-10T02:49:17.362Z,100.00
2023-05-10T02:51:51.837Z,100.00
2023-05-10T02:54:25.442Z,100.00
2023-05-10T02:56:57.324Z,100.00
2023-05-10T02:59:24.226Z,100.00
2023-05-10T03:01:50.814Z,100.00
2023-05-10T03:04:18.673Z,100.00
2023-05-10T03:06:45.805Z,100.00
2023-05-10T03:09:16.245Z,100.00
2023-05-10T03:12:03.175Z,100.00
2023-05-10T03:14:39.808Z,100.00
2023-05-10T03:17:35.428Z,100.00
2023-05-10T03:20:10.754Z,100.00
2023-05-10T03:22:48.049Z,100.00
2023-05-10T03:25:17.527Z,100.00
2023-05-10T03:27:45.058Z,100.00
2023-05-10T03:30:13.676Z,100.00
2023-05-10T03:32:40.898Z,100.00
2023-05-10T03:35:13.364Z,100.00
2023-05-10T03:37:40.117Z,100.00
2023-05-10T03:40:07.208Z,100.00
2023-05-10T03:42:36.024Z,100.00
2023-05-10T03:45:02.576Z,100.00
2023-05-10T03:47:30.696Z,100.00
2023-05-10T03:49:58.846Z,100.00
2023-05-10T03:52:25.374Z,100.00
2023-05-10T03:54:51.941Z,100.00
2023-05-10T03:57:19.767Z,100.00
2023-05-10T03:59:46.394Z,100.00
2023-05-10T04:02:12.898Z,100.00
2023-05-10T04:04:39.537Z,100.00
2023-05-10T04:07:06.303Z,100.00
2023-05-10T04:09:33.674Z,100.00
2023-05-10T04:12:01.567Z,100.00
2023-05-10T04:14:28.049Z,100.00
2023-05-10T04:16:54.556Z,100.00
2023-05-10T04:19:21.428Z,100.00
2023-05-10T04:21:47.994Z,100.00
2023-05-10T04:24:14.491Z,100.00
2023-05-10T04:26:40.982Z,100.00
2023-05-10T04:29:07.664Z,100.00
2023-05-10T04:31:35.255Z,100.00
2023-05-10T04:34:01.831Z,100.00
2023-05-10T04:36:28.705Z,100.00
2023-05-10T04:38:55.472Z,100.00
2023-05-10T04:41:21.974Z,100.00
2023-05-10T04:43:50.427Z,100.00
2023-05-10T04:46:17.092Z,100.00
2023-05-10T04:48:43.576Z,100.00
2023-05-10T04:51:10.099Z,99.99
2023-05-10T04:53:36.818Z,100.00
2023-05-10T04:56:03.479Z,100.00
2023-05-10T04:58:30.083Z,99.91
2023-05-10T05:00:56.490Z,100.00
2023-05-10T05:03:23.450Z,100.00
2023-05-10T05:05:50.061Z,100.00
2023-05-10T05:08:16.654Z,100.00
2023-05-10T05:10:43.307Z,100.00
2023-05-10T05:13:09.768Z,100.00
2023-05-10T05:15:36.572Z,100.00
2023-05-10T05:18:03.162Z,100.00
2023-05-10T05:20:33.380Z,100.00
2023-05-10T05:22:59.919Z,100.00
2023-05-10T05:25:26.403Z,99.05
2023-05-10T05:27:52.858Z,100.00
2023-05-10T05:30:19.505Z,100.00
2023-05-10T05:32:48.028Z,100.00
2023-05-10T05:35:14.763Z,100.00
2023-05-10T05:37:41.351Z,99.34
2023-05-10T05:40:08.150Z,100.00
2023-05-10T05:42:34.672Z,100.00
2023-05-10T05:45:01.136Z,98.28
2023-05-10T05:47:27.675Z,97.94
2023-05-10T05:49:54.103Z,97.28
2023-05-10T05:52:20.610Z,97.17
2023-05-10T05:54:47.069Z,95.13
2023-05-10T05:57:13.589Z,96.81
2023-05-10T05:59:44.749Z,97.53
2023-05-10T06:02:11.972Z,95.24
2023-05-10T06:04:39.254Z,96.83
2023-05-10T06:07:06.364Z,96.41
2023-05-10T06:09:32.903Z,94.48
2023-05-10T06:11:59.346Z,93.08
2023-05-10T06:14:26.000Z,94.64
2023-05-10T06:16:52.507Z,93.38
2023-05-10T06:19:19.175Z,91.74
2023-05-10T06:21:45.694Z,90.72
2023-05-10T06:24:12.212Z,90.29
2023-05-10T06:26:38.626Z,89.83
2023-05-10T06:29:05.191Z,89.05
2023-05-10T06:31:31.743Z,86.24
2023-05-10T06:33:58.807Z,88.32
2023-05-10T06:36:27.291Z,86.99
2023-05-10T06:38:53.968Z,86.15
2023-05-10T06:41:21.590Z,85.00
2023-05-10T06:43:49.070Z,89.33
2023-05-10T06:46:15.792Z,85.74
2023-05-10T06:48:42.298Z,87.55
2023-05-10T06:51:08.738Z,84.38
2023-05-10T06:53:35.274Z,86.74
2023-05-10T06:56:01.761Z,85.82
2023-05-10T06:58:28.825Z,84.71
2023-05-10T07:00:55.326Z,85.77
2023-05-10T07:03:21.891Z,84.17
2023-05-10T07:05:48.419Z,83.90
2023-05-10T07:08:15.476Z,85.62
2023-05-10T07:10:41.974Z,86.29
2023-05-10T07:13:08.504Z,86.56
2023-05-10T07:15:35.163Z,87.88
2023-05-10T07:18:02.882Z,88.30
2023-05-10T07:20:29.417Z,88.65
2023-05-10T07:22:55.997Z,89.40
2023-05-10T07:25:22.449Z,88.97
2023-05-10T07:27:49.555Z,91.64
2023-05-10T07:30:16.231Z,90.14
2023-05-10T07:32:43.428Z,92.25
2023-05-10T07:35:09.936Z,89.46
2023-05-10T07:37:36.884Z,92.38
2023-05-10T07:40:03.553Z,91.31
2023-05-10T07:42:30.094Z,88.80
2023-05-10T07:44:56.604Z,89.69
2023-05-10T07:47:23.238Z,89.81
2023-05-10T07:49:50.041Z,89.06
2023-05-10T07:52:16.668Z,90.79
2023-05-10T07:54:43.244Z,89.45
2023-05-10T07:57:09.839Z,88.79
2023-05-10T07:59:36.594Z,87.56
2023-05-10T08:02:03.194Z,87.95
2023-05-10T08:04:29.762Z,84.11
2023-05-10T08:06:56.419Z,85.30
2023-05-10T08:09:24.952Z,86.05
2023-05-10T08:11:51.722Z,87.98
2023-05-10T08:14:18.338Z,89.24
2023-05-10T08:16:44.977Z,93.33
2023-05-10T08:19:11.447Z,93.35
2023-05-10T08:21:38.385Z,90.57
2023-05-10T08:24:05.777Z,90.48
2023-05-10T08:26:33.457Z,88.68
2023-05-10T08:29:00.178Z,88.60
2023-05-10T08:31:26.757Z,85.95
2023-05-10T08:33:53.708Z,85.20
2023-05-10T08:36:25.097Z,81.27
2023-05-10T08:38:52.870Z,78.14
2023-05-10T08:41:21.989Z,77.38
2023-05-10T08:43:48.821Z,74.80
2023-05-10T08:46:20.917Z,74.07
2023-05-10T08:48:49.057Z,75.04
2023-05-10T08:51:19.207Z,72.83
2023-05-10T08:53:46.777Z,70.18
2023-05-10T08:56:13.732Z,71.93
2023-05-10T08:58:40.455Z,71.12
2023-05-10T09:01:08.485Z,69.02
2023-05-10T09:03:36.182Z,70.39
2023-05-10T09:06:02.778Z,68.83
2023-05-10T09:08:30.373Z,70.75
2023-05-10T09:10:57.490Z,70.09
2023-05-10T09:13:25.561Z,71.58
2023-05-10T09:15:52.965Z,73.12
2023-05-10T09:18:19.735Z,69.90
2023-05-10T09:20:46.409Z,68.00
2023-05-10T09:23:12.885Z,68.68
2023-05-10T09:25:39.734Z,68.35
2023-05-10T09:28:10.595Z,67.63
2023-05-10T09:30:37.522Z,65.00
2023-05-10T09:33:04.493Z,67.08
2023-05-10T09:35:34.430Z,63.89
2023-05-10T09:38:03.891Z,66.60
2023-05-10T09:40:31.050Z,66.30
2023-05-10T09:43:00.318Z,64.11
2023-05-10T09:45:36.184Z,63.16
2023-05-10T09:48:05.095Z,64.90
2023-05-10T09:50:31.774Z,63.50
2023-05-10T09:53:04.490Z,64.12
2023-05-10T09:55:37.269Z,64.59
2023-05-10T09:58:03.845Z,64.65
2023-05-10T10:00:36.484Z,66.75
2023-05-10T10:03:04.269Z,65.68
2023-05-10T10:05:36.307Z,64.84
2023-05-10T10:08:06.333Z,64.22
2023-05-10T10:10:34.146Z,65.46
2023-05-10T10:13:01.132Z,65.78
2023-05-10T10:15:28.066Z,66.67
2023-05-10T10:17:55.002Z,66.51
2023-05-10T10:20:23.515Z,68.31
2023-05-10T10:22:50.396Z,66.40
2023-05-10T10:25:19.167Z,67.70
2023-05-10T10:27:55.145Z,67.75
2023-05-10T10:30:31.071Z,66.28
2023-05-10T10:33:34.924Z,64.02
2023-05-10T10:36:03.612Z,63.67
2023-05-10T10:38:48.523Z,61.12
2023-05-10T10:41:32.914Z,61.29
2023-05-10T10:44:27.530Z,60.42
2023-05-10T10:47:13.054Z,62.33
2023-05-10T10:49:46.576Z,62.13
2023-05-10T10:52:24.861Z,63.96
2023-05-10T10:55:00.302Z,64.87
2023-05-10T10:57:27.657Z,67.55
2023-05-10T11:00:29.401Z,68.94
2023-05-10T11:03:01.124Z,71.73
2023-05-10T11:05:33.720Z,73.81
2023-05-10T11:08:01.347Z,74.65
2023-05-10T11:10:28.290Z,74.87
2023-05-10T11:13:06.687Z,73.36
2023-05-10T11:15:39.022Z,71.30
2023-05-10T11:18:24.565Z,72.91
2023-05-10T11:21:10.369Z,71.70
2023-05-10T11:23:45.764Z,70.30
2023-05-10T11:26:12.857Z,67.74
2023-05-10T11:28:45.770Z,69.16
2023-05-10T11:31:15.698Z,64.66
2023-05-10T11:33:46.554Z,67.61
2023-05-10T11:36:18.238Z,65.45
2023-05-10T11:38:45.240Z,62.54
2023-05-10T11:41:13.266Z,62.15
2023-05-10T11:43:40.922Z,61.59
2023-05-10T11:46:11.428Z,61.01
2023-05-10T11:48:40.927Z,62.86
2023-05-10T11:51:08.700Z,61.22
2023-05-10T11:53:35.398Z,62.25
2023-05-10T11:56:20.027Z,62.35
2023-05-10T11:58:48.067Z,63.04
2023-05-10T12:01:14.757Z,64.78
2023-05-10T12:03:41.545Z,63.59
2023-05-10T12:06:08.771Z,64.99
2023-05-10T12:08:35.705Z,64.99
2023-05-10T12:11:11.277Z,65.28
2023-05-10T12:13:42.501Z,67.57
2023-05-10T12:16:15.488Z,69.29
2023-05-10T12:18:43.572Z,72.21
2023-05-10T12:21:13.758Z,76.22
2023-05-10T12:23:40.765Z,82.56
2023-05-10T12:26:09.632Z,85.77
2023-05-10T12:28:36.557Z,86.32
2023-05-10T12:31:03.972Z,86.61
2023-05-10T12:33:43.434Z,85.75
2023-05-10T12:36:12.200Z,86.32
2023-05-10T12:38:44.325Z,84.11
2023-05-10T12:41:12.801Z,82.26
2023-05-10T12:43:40.816Z,81.53
2023-05-10T12:46:17.969Z,84.13
2023-05-10T12:48:46.395Z,81.25
2023-05-10T12:51:14.184Z,81.62
2023-05-10T12:53:42.748Z,81.50
2023-05-10T12:56:11.152Z,77.94
2023-05-10T12:58:37.597Z,78.46
2023-05-10T13:01:05.135Z,79.19
2023-05-10T13:03:31.864Z,76.47
2023-05-10T13:05:58.495Z,76.71
2023-05-10T13:08:25.170Z,75.94
2023-05-10T13:10:51.701Z,77.96
2023-05-10T13:13:19.201Z,79.02
2023-05-10T13:15:45.770Z,79.22
2023-05-10T13:18:12.363Z,76.49
2023-05-10T13:20:39.200Z,76.59
2023-05-10T13:23:05.804Z,77.14
2023-05-10T13:25:32.384Z,77.09
2023-05-10T13:27:59.106Z,80.70
2023-05-10T13:30:25.616Z,78.60
2023-05-10T13:32:52.292Z,83.39
2023-05-10T13:35:18.937Z,84.63
2023-05-10T13:37:45.483Z,85.61
2023-05-10T13:40:12.548Z,87.66
2023-05-10T13:42:39.318Z,91.54
2023-05-10T13:45:06.492Z,89.23
2023-05-10T13:47:33.135Z,87.63
2023-05-10T13:49:59.767Z,88.41
2023-05-10T13:52:26.938Z,87.98
2023-05-10T13:54:55.892Z,89.10
2023-05-10T13:57:24.185Z,90.91
2023-05-10T13:59:51.342Z,89.90
2023-05-10T14:02:18.350Z,88.18
2023-05-10T14:04:45.178Z,89.47
2023-05-10T14:07:12.156Z,88.88
2023-05-10T14:09:38.686Z,88.45
2023-05-10T14:12:05.210Z,89.99
2023-05-10T14:14:31.824Z,89.39
2023-05-10T14:16:58.272Z,88.95
2023-05-10T14:19:24.804Z,89.14
2023-05-10T14:21:52.967Z,88.49
2023-05-10T14:24:19.539Z,87.04
2023-05-10T14:26:46.162Z,87.86
2023-05-10T14:29:12.856Z,90.82
2023-05-10T14:31:39.667Z,89.40
2023-05-10T14:34:06.687Z,85.57
2023-05-10T14:36:33.535Z,85.14
2023-05-10T14:39:00.385Z,86.22
2023-05-10T14:41:26.915Z,85.11
2023-05-10T14:43:53.572Z,87.04
2023-05-10T14:46:20.740Z,86.65
2023-05-10T14:48:47.509Z,83.33
2023-05-10T14:51:14.262Z,84.56
2023-05-10T14:53:41.181Z,88.58
2023-05-10T14:56:08.116Z,86.93
2023-05-10T14:58:34.759Z,88.63
2023-05-10T15:01:01.826Z,86.42
2023-05-10T15:03:29.229Z,86.16
2023-05-10T15:05:58.600Z,88.76
2023-05-10T15:08:28.732Z,88.69
2023-05-10T15:10:56.913Z,89.08
2023-05-10T15:13:23.521Z,89.15
2023-05-10T15:15:49.973Z,85.56
2023-05-10T15:18:16.640Z,88.34
2023-05-10T15:20:43.283Z,84.83
2023-05-10T15:23:09.778Z,85.19
2023-05-10T15:25:38.183Z,85.00
2023-05-10T15:28:05.225Z,82.87
2023-05-10T15:30:31.999Z,80.83
2023-05-10T15:32:58.961Z,82.00
2023-05-10T15:35:26.933Z,82.59
2023-05-10T15:37:53.538Z,80.66
2023-05-10T15:40:20.390Z,80.31
2023-05-10T15:42:46.925Z,80.43
2023-05-10T15:45:13.978Z,79.01
2023-05-10T15:47:40.622Z,79.43
2023-05-10T15:50:07.785Z,79.62
2023-05-10T15:52:34.681Z,82.31
2023-05-10T15:55:01.311Z,82.69
2023-05-10T15:57:27.906Z,81.93
2023-05-10T15:59:54.467Z,81.82
2023-05-10T16:02:22.578Z,84.74
2023-05-10T16:04:49.407Z,84.48
2023-05-10T16:07:15.952Z,84.27
2023-05-10T16:09:42.631Z,86.07
2023-05-10T16:12:09.225Z,86.30
2023-05-10T16:14:35.745Z,87.95
2023-05-10T16:17:04.990Z,85.71
2023-05-10T16:19:31.783Z,88.91
2023-05-10T16:21:58.345Z,93.42
2023-05-10T16:24:25.981Z,90.79
2023-05-10T16:26:52.515Z,92.91
2023-05-10T16:29:19.032Z,90.44
2023-05-10T16:31:46.315Z,86.33
2023-05-10T16:34:12.886Z,87.39
2023-05-10T16:36:39.362Z,90.83
2023-05-10T16:39:05.896Z,87.21
2023-05-10T16:41:35.395Z,88.68
2023-05-10T16:44:03.604Z,91.85
2023-05-10T16:46:30.275Z,90.16
2023-05-10T16:48:56.971Z,88.03
2023-05-10T16:51:23.532Z,89.76
2023-05-10T16:53:49.993Z,91.11
2023-05-10T16:56:18.357Z,90.35
2023-05-10T16:58:44.907Z,90.49
2023-05-10T17:01:11.361Z,90.20
2023-05-10T17:03:38.038Z,90.53
2023-05-10T17:06:06.095Z,89.30
2023-05-10T17:08:33.435Z,89.60
2023-05-10T17:11:04.005Z,88.71
2023-05-10T17:13:31.842Z,89.21
2023-05-10T17:15:58.561Z,89.62
2023-05-10T17:18:26.568Z,90.85
2023-05-10T17:20:53.242Z,90.97
2023-05-10T17:23:19.700Z,91.06
2023-05-10T17:25:46.313Z,90.28
2023-05-10T17:28:12.978Z,93.24
2023-05-10T17:30:39.573Z,92.92
2023-05-10T17:33:06.198Z,92.56
2023-05-10T17:35:32.760Z,91.61
2023-05-10T17:37:59.193Z,94.72
2023-05-10T17:40:25.983Z,94.70
2023-05-10T17:42:52.659Z,94.48
2023-05-10T17:45:19.565Z,93.53
2023-05-10T17:47:46.527Z,95.56
2023-05-10T17:50:13.174Z,96.08
2023-05-10T17:52:39.724Z,95.91
2023-05-10T17:55:06.834Z,96.58
2023-05-10T17:57:33.604Z,95.85
2023-05-10T18:00:00.243Z,95.28
2023-05-10T18:02:26.826Z,96.76
2023-05-10T18:04:53.492Z,97.18
2023-05-10T18:07:21.973Z,97.43
2023-05-10T18:09:48.488Z,96.69
2023-05-10T18:12:14.941Z,97.13
2023-05-10T18:14:41.864Z,97.94
2023-05-10T18:17:09.627Z,98.25
2023-05-10T18:19:36.377Z,99.00
2023-05-10T18:22:03.261Z,100.00
2023-05-10T18:24:38.989Z,100.00
2023-05-10T18:27:07.610Z,100.00
2023-05-10T18:29:34.245Z,100.00
2023-05-10T18:32:00.934Z,100.00
2023-05-10T18:34:27.489Z,99.39
2023-05-10T18:36:54.043Z,99.03
2023-05-10T18:39:20.630Z,100.00
2023-05-10T18:41:47.360Z,100.00
2023-05-10T18:44:14.533Z,100.00
2023-05-10T18:46:42.343Z,100.00
2023-05-10T18:49:09.261Z,100.00
2023-05-10T18:51:36.062Z,100.00
2023-05-10T18:54:02.665Z,100.00
2023-05-10T18:56:29.103Z,100.00
2023-05-10T18:58:56.036Z,100.00
2023-05-10T19:01:22.671Z,100.00
2023-05-10T19:03:49.213Z,100.00
2023-05-10T19:06:15.787Z,100.00
2023-05-10T19:08:42.390Z,100.00
2023-05-10T19:11:09.210Z,100.00
2023-05-10T19:13:35.849Z,100.00
2023-05-10T19:16:07.024Z,100.00
2023-05-10T19:18:34.018Z,100.00
2023-05-10T19:21:04.504Z,100.00
2023-05-10T19:23:34.820Z,100.00
2023-05-10T19:26:01.673Z,100.00
2023-05-10T19:28:28.477Z,100.00
2023-05-10T19:30:55.031Z,100.00
2023-05-10T19:33:21.490Z,100.00
2023-05-10T19:35:51.313Z,100.00
2023-05-10T19:38:24.215Z,100.00
2023-05-10T19:40:57.518Z,100.00
2023-05-10T19:43:28.381Z,100.00
2023-05-10T19:45:57.947Z,100.00
2023-05-10T19:48:24.805Z,100.00
2023-05-10T19:50:52.547Z,100.00
2023-05-10T19:53:19.208Z,100.00
2023-05-10T19:55:46.089Z,100.00
2023-05-10T19:58:12.614Z,100.00
2023-05-10T20:00:39.079Z,100.00
2023-05-10T20:03:08.424Z,100.00
2023-05-10T20:05:35.727Z,100.00
2023-05-10T20:08:02.170Z,100.00
2023-05-10T20:10:28.735Z,100.00
2023-05-10T20:12:55.131Z,100.00
2023-05-10T20:15:23.188Z,100.00
2023-05-10T20:17:51.292Z,100.00
2023-05-10T20:20:18.327Z,100.00
2023-05-10T20:22:45.808Z,100.00
2023-05-10T20:25:13.003Z,100.00
2023-05-10T20:27:39.574Z,100.00
2023-05-10T20:30:06.312Z,100.00
2023-05-10T20:32:34.266Z,100.00
2023-05-10T20:35:01.568Z,100.00
2023-05-10T20:37:28.661Z,100.00
2023-05-10T20:39:55.551Z,100.00
2023-05-10T20:42:22.933Z,100.00
2023-05-10T20:44:52.362Z,100.00
2023-05-10T20:47:19.159Z,100.00
2023-05-10T20:49:46.100Z,100.00
2023-05-10T20:52:12.695Z,100.00
2023-05-10T20:54:39.298Z,100.00
2023-05-10T20:57:05.853Z,100.00
2023-05-10T20:59:32.491Z,100.00
2023-05-10T21:01:59.300Z,100.00
2023-05-10T21:04:26.118Z,100.00
2023-05-10T21:06:53.255Z,100.00
2023-05-10T21:09:19.879Z,100.00
2023-05-10T21:11:46.600Z,100.00
2023-05-10T21:14:13.177Z,100.00
2023-05-10T21:16:39.810Z,100.00
2023-05-10T21:19:07.489Z,100.00
2023-05-10T21:21:34.541Z,100.00
2023-05-10T21:24:01.312Z,100.00
2023-05-10T21:26:28.681Z,100.00
2023-05-10T21:28:55.456Z,100.00
2023-05-10T21:31:21.987Z,100.00
2023-05-10T21:33:48.630Z,100.00
2023-05-10T21:36:15.122Z,100.00
2023-05-10T21:38:44.288Z,100.00
2023-05-10T21:41:10.969Z,100.00
2023-05-10T21:43:37.517Z,100.00
2023-05-10T21:46:04.103Z,100.00
2023-05-10T21:48:30.880Z,100.00
2023-05-10T21:50:57.389Z,100.00
2023-05-10T21:53:23.820Z,100.00
2023-05-10T21:55:50.458Z,100.00
2023-05-10T21:58:16.988Z,100.00
2023-05-10T22:18:11.986Z,100.00
2023-05-10T22:20:38.665Z,100.00
2023-05-10T22:23:05.507Z,100.00
2023-05-10T22:25:32.287Z,100.00
2023-05-10T22:27:58.814Z,100.00
2023-05-10T22:30:25.442Z,100.00
2023-05-10T22:32:52.004Z,100.00
2023-05-10T22:35:18.474Z,100.00
2023-05-10T22:37:45.040Z,100.00
2023-05-10T22:40:11.728Z,100.00
2023-05-10T22:42:38.425Z,100.00
2023-05-10T22:45:05.801Z,100.00
2023-05-10T22:47:33.576Z,100.00
2023-05-10T22:50:03.238Z,100.00
2023-05-10T22:52:29.930Z,100.00
2023-05-10T22:54:56.892Z,100.00
2023-05-10T22:57:23.400Z,100.00
2023-05-10T22:59:49.841Z,100.00
2023-05-10T23:02:16.628Z,100.00
2023-05-10T23:04:43.440Z,100.00
2023-05-10T23:07:10.219Z,100.00
2023-05-10T23:09:36.893Z,100.00
2023-05-10T23:12:03.599Z,100.00
2023-05-10T23:14:30.281Z,100.00
2023-05-10T23:16:56.900Z,100.00
2023-05-10T23:19:24.527Z,100.00
2023-05-10T23:21:51.167Z,100.00
2023-05-10T23:24:17.639Z,100.00
2023-05-10T23:26:46.335Z,100.00
2023-05-10T23:29:12.913Z,100.00
2023-05-10T23:31:45.216Z,100.00
2023-05-10T23:34:12.406Z,100.00
2023-05-10T23:36:39.354Z,100.00
2023-05-10T23:39:06.706Z,100.00
2023-05-10T23:41:33.360Z,100.00
2023-05-10T23:44:00.041Z,100.00
2023-05-10T23:46:26.807Z,100.00
2023-05-10T23:48:53.352Z,100.00
2023-05-10T23:51:19.830Z,100.00
2023-05-10T23:53:46.327Z,100.00
2023-05-10T23:56:12.849Z,100.00
2023-05-10T23:58:39.385Z,100.00
